Nearby METAR Reports

 

PAEN - Kenai, Alaska, USA
Distance from station: ESE 2mi, 4km
Updated: Sat, 17-Nov-2018 10:53pm AKST
Light rain, Overcast
Light rain, Overcast
 Wind from N
Wind: N 10 mph , 17 km/h
Temperature: 37°F , 3°C
Wind Chill: 30°F , -1°C
Dew Point: 37°F , 3°C
Humidity: 100%
Barometer: 29.56 inHg , 1001 hPa
Summary: Light rain
Clouds: Overcast
Visibility: 10 miles , 16 km
Cloud details: Overcast 4600 ft
2018/11/18 07:53 PAEN 180753Z AUTO 01009KT 10SM -RA OVC046 03/03 A2956 RMK AO2 RAB32 SLP011 P0001 T00330028 TSNO
PASX - Soldotna, Alaska, USA
Distance from station: SE 12mi, 19km
Updated: Sat, 17-Nov-2018 10:56pm AKST
Light rain, Overcast
Light rain, Overcast
 Wind from calm
Wind: Calm
Temperature: 36°F , 2°C
Dew Point: 34°F , 1°C
Humidity: 93%
Barometer: 29.57 inHg , 1001.4 hPa
Summary: Light rain
Clouds: Overcast
Visibility: 10 miles , 16 km
Cloud details: Overcast 4900 ft
2018/11/18 07:56 PASX 180756Z AUTO 00000KT 10SM -RA OVC049 02/01 A2957 RMK AO2 RAB22 SLP024 P0001 T00220011 FZRANO
 
PANC - Anchorage Intl, Alaska, USA
Distance from station: NE 59mi, 96km
Updated: Sat, 17-Nov-2018 10:53pm AKST
Mostly cloudy
Mostly cloudy
 Wind from NW
Wind: NW 6 mph , 9 km/h
Temperature: 37°F , 3°C
Wind Chill: 32°F , 0°C
Dew Point: 34°F , 1°C
Humidity: 87%
Barometer: 29.55 inHg , 1000.7 hPa
Clouds: Mostly cloudy
Visibility: 10 miles , 16 km
Cloud details: Few Clouds 300 ft
Partly cloudy 600 ft
Mostly cloudy 8000 ft
Mostly cloudy 13000 ft
2018/11/18 07:53 PANC 180753Z 31005KT 10SM FEW003 SCT006 BKN080 BKN130 03/01 A2955 RMK AO2 SLP010 T00280006 $
PALH - Anchorage/Lake H, Alaska, USA
Distance from station: NE 61mi, 99km
Updated: Sat, 17-Nov-2018 10:53pm AKST
Partly cloudy
Partly cloudy
 Wind from N
Wind: N 6 mph , 9 km/h
Temperature: 34°F , 1°C
Wind Chill: 29°F , -2°C
Dew Point: 30°F , -1°C
Humidity: 87%
Barometer: 29.56 inHg , 1001 hPa
Clouds: Partly cloudy
Visibility: 10 miles , 16 km
Cloud details: Partly cloudy 12000 ft
2018/11/18 07:53 PALH 180753Z 36005KT 10SM SCT120 01/M01 A2956 RMK AO2 SLP012 T00111006
 
PAHO - Homer, Alaska, USA
Distance from station: S 66mi, 106km
Updated: Sat, 17-Nov-2018 10:53pm AKST
Light rain, Overcast
Light rain, Overcast
 Wind from calm
Wind: Calm
Temperature: 45°F , 7°C
Dew Point: 41°F , 5°C
Humidity: 87%
Barometer: 29.50 inHg , 999 hPa
Summary: Light rain
Clouds: Overcast
Visibility: 10 miles , 16 km
Cloud details: Overcast 5000 ft
2018/11/18 07:53 PAHO 180753Z AUTO 00000KT 10SM -RA OVC050 07/05 A2950 RMK AO2 SLP991 P0003 T00670050 TSNO
PAMR - Anchorage/Merril, Alaska, USA
Distance from station: NE 66mi, 106km
Updated: Sat, 17-Nov-2018 11:00pm AKST
Mostly cloudy
Mostly cloudy
 Wind from NW
Wind: NW 5 mph , 7 km/h
Temperature: 34°F , 1°C
Wind Chill: 29°F , -2°C
Dew Point: 30°F , -1°C
Humidity: 87%
Barometer: 29.56 inHg , 1001 hPa
Clouds: Mostly cloudy
Visibility: 10 miles , 16 km
Cloud details: Few Clouds 300 ft
Partly cloudy 8000 ft
Mostly cloudy 13000 ft
2018/11/18 08:00 PAMR 180800Z 32004KT 10SM FEW003 SCT080 BKN130 01/M01 A2956 RMK AO2 T00111006
 
PAED - Elmendorf Afb, Alaska, USA
Distance from station: NE 69mi, 110km
Updated: Sat, 17-Nov-2018 10:56pm AKST
Overcast
Overcast
 Wind from N
Wind: N 13 mph , 20 km/h
Temperature: 34°F , 1°C
Wind Chill: 25°F , -4°C
Dew Point: 34°F , 1°C
Humidity: 100%
Barometer: 29.52 inHg , 999.7 hPa
Clouds: Overcast
Visibility: 10 miles , 16 km
Cloud details: Partly cloudy 8000 ft
Overcast 12000 ft
2018/11/18 07:56 PAED 180756Z 01011KT 10SM SCT080 OVC120 01/01 A2952 RMK AO2A SLPNO T00120012 $
PAWD - Seward, Alaska, USA
Distance from station: ESE 71mi, 115km
Updated: Sat, 17-Nov-2018 10:53pm AKST
Overcast
Overcast
 Wind from calm
Wind: Calm
Temperature: 45°F , 7°C
Dew Point: 45°F , 7°C
Humidity: 100%
Barometer: 29.60 inHg , 1002.4 hPa
Clouds: Overcast
Visibility: 10 miles , 16 km
Cloud details: Partly cloudy 2800 ft
Partly cloudy 3300 ft
Overcast 4600 ft
2018/11/18 07:53 PAWD 180753Z AUTO 00000KT 10SM SCT028 SCT033 OVC046 07/07 A2960 RMK AO2 SLP023 T00670067 TSNO $
 
PASC - Deadhorse, Alaska, USA
Distance from station: ENE 670mi, 1078km
Updated: Sat, 17-Nov-2018 10:53pm AKST
Mist, Overcast
Mist, Overcast
 Wind from WSW
Wind: WSW 3 mph , 6 km/h
Temperature: 12°F , -11°C
Dew Point: 10°F , -12°C
Humidity: 92%
Barometer: 29.73 inHg , 1006.8 hPa
Summary: Mist
Clouds: Overcast
Visibility: 6 miles , 10 km
Cloud details: Overcast 400 ft
2018/11/18 07:53 PASC 180753Z 25003KT 6SM BR OVC004 M11/M12 A2973 RMK AO2 SLP068 I1000 T11061117
PAAD - Point Thomson, Alaska, USA
Distance from station: ENE 680mi, 1094km
Updated: Sat, 17-Nov-2018 11:15pm AKST
Overcast
Overcast
 Wind from WSW
Wind: WSW 12 mph , 19 km/h
Temperature: 3°F , -16°C
Wind Chill: -14°F , -26°C
Dew Point: 1°F , -17°C
Humidity: 92%
Barometer: 29.71 inHg , 1006.1 hPa
Clouds: Overcast
Visibility: 10 miles , 16 km
Cloud details: Overcast 800 ft
2018/11/18 08:15 PAAD 180815Z AUTO 24010KT 10SM OVC008 M16/M17 A2971 RMK AO2 T11561171


kenaipeople.com website

Dans Automotive

Lower Peninsula Power Sports

Freddies RoadHouse

Alaska Weather Net

United States Weather Group